Time;durP1;ratioP1;P1;durP2;ratioP2;P2;SDS_P1;SDS_P2;PMS_P1;PMS_P2;Temp;Humidity;BMP_temperature;BMP_pressure;BME280_temperature;BME280_humidity;BME280_pressure;Samples;Min_cycle;Max_cycle;Signal;HPM_P1;HPM_P2
2023/06/21 00:00:01;;;;;;;5.07;3.47;;;;;;;;;;5023481;28;20226;-62
2023/06/21 00:02:31;;;;;;;7.03;3.47;;;;;;;;;;5039235;28;20210;-63
2023/06/21 00:04:59;;;;;;;5.23;3.67;;;;;;;;;;5040069;28;20257;-63
2023/06/21 00:07:28;;;;;;;6.43;3.70;;;;;;;;;;5039978;28;20571;-63
2023/06/21 00:09:56;;;;;;;5.70;3.43;;;;;;;;;;5040268;28;20213;-62
2023/06/21 00:12:26;;;;;;;5.90;3.90;;;;;;;;;;5040483;28;20238;-62
2023/06/21 00:14:54;;;;;;;4.87;3.77;;;;;;;;;;5040148;28;20218;-62
2023/06/21 00:17:23;;;;;;;5.20;3.63;;;;;;;;;;5039722;28;20661;-62
2023/06/21 00:19:52;;;;;;;7.97;3.50;;;;;;;;;;5039485;28;20289;-62
2023/06/21 00:22:22;;;;;;;6.20;4.00;;;;;;;;;;5031053;28;20692;-62
2023/06/21 00:24:51;;;;;;;4.57;3.63;;;;;;;;;;5019904;28;20724;-62
2023/06/21 00:27:19;;;;;;;4.47;3.57;;;;;;;;;;5020164;28;20211;-63
2023/06/21 00:29:47;;;;;;;5.60;3.77;;;;;;;;;;5020076;28;20208;-62
2023/06/21 00:32:15;;;;;;;4.50;3.40;;;;;;;;;;5019986;28;20258;-63
2023/06/21 00:34:44;;;;;;;7.60;3.67;;;;;;;;;;5019668;28;20211;-63
2023/06/21 00:37:12;;;;;;;4.00;3.60;;;;;;;;;;5020094;28;20204;-62
2023/06/21 00:39:40;;;;;;;6.07;3.40;;;;;;;;;;5019801;28;20234;-62
2023/06/21 00:42:10;;;;;;;3.43;3.07;;;;;;;;;;5019990;28;20247;-62
2023/06/21 00:44:38;;;;;;;5.33;4.40;;;;;;;;;;5019598;28;20210;-62
2023/06/21 00:47:07;;;;;;;5.90;3.67;;;;;;;;;;5025593;28;20214;-62
2023/06/21 00:49:35;;;;;;;7.13;3.77;;;;;;;;;;5038611;28;20230;-62
2023/06/21 00:52:05;;;;;;;8.90;5.13;;;;;;;;;;5039478;28;20208;-62
2023/06/21 00:54:35;;;;;;;5.20;3.97;;;;;;;;;;5039491;28;20220;-62
2023/06/21 00:57:03;;;;;;;5.57;3.87;;;;;;;;;;5039344;28;20257;-63
2023/06/21 00:59:32;;;;;;;4.17;3.53;;;;;;;;;;5029032;28;20640;-62
2023/06/21 01:02:02;;;;;;;4.90;3.87;;;;;;;;;;5038860;28;20225;-62
2023/06/21 01:04:31;;;;;;;6.63;4.17;;;;;;;;;;5039170;28;20235;-63
2023/06/21 01:07:06;;;;;;;6.50;3.77;;;;;;;;;;5039033;28;20203;-62
2023/06/21 01:09:40;;;;;;;4.47;3.80;;;;;;;;;;5037186;28;20218;-62
2023/06/21 01:12:13;;;;;;;5.90;4.03;;;;;;;;;;5027036;28;20214;-63
2023/06/21 01:14:47;;;;;;;5.77;3.53;;;;;;;;;;5039059;28;20203;-62
2023/06/21 01:17:16;;;;;;;5.13;3.90;;;;;;;;;;5038469;28;20218;-62
2023/06/21 01:19:46;;;;;;;5.93;3.87;;;;;;;;;;5038533;28;20235;-62
2023/06/21 01:22:18;;;;;;;3.23;2.93;;;;;;;;;;5038725;28;20674;-62
2023/06/21 01:24:50;;;;;;;4.77;3.03;;;;;;;;;;5038598;28;20587;-62
2023/06/21 01:27:28;;;;;;;4.10;3.70;;;;;;;;;;5038531;28;20681;-62
2023/06/21 01:29:59;;;;;;;4.20;3.80;;;;;;;;;;5038530;28;20199;-63
2023/06/21 01:32:28;;;;;;;3.40;3.20;;;;;;;;;;5038368;28;20282;-62
2023/06/21 01:34:56;;;;;;;6.37;3.47;;;;;;;;;;5038330;28;20209;-62
2023/06/21 01:37:24;;;;;;;4.43;3.53;;;;;;;;;;5038618;28;20239;-62
2023/06/21 01:39:55;;;;;;;4.80;3.57;;;;;;;;;;5034844;28;20223;-62
2023/06/21 01:42:23;;;;;;;5.30;3.40;;;;;;;;;;5038443;28;20204;-62
2023/06/21 01:44:51;;;;;;;5.73;4.83;;;;;;;;;;5032187;28;20203;-62
2023/06/21 01:47:21;;;;;;;4.03;3.63;;;;;;;;;;5031175;28;20747;-62
2023/06/21 01:49:50;;;;;;;5.43;3.40;;;;;;;;;;5033020;28;20239;-62
2023/06/21 01:52:19;;;;;;;4.63;3.57;;;;;;;;;;5041354;28;20203;-62
2023/06/21 01:54:47;;;;;;;5.30;3.00;;;;;;;;;;5041749;28;20226;-62
2023/06/21 01:57:16;;;;;;;7.27;3.60;;;;;;;;;;5039190;28;20258;-62
2023/06/21 01:59:44;;;;;;;5.03;3.43;;;;;;;;;;5041252;28;20879;-62
2023/06/21 02:02:12;;;;;;;7.13;3.90;;;;;;;;;;5042926;28;20208;-62
2023/06/21 02:04:42;;;;;;;7.17;3.50;;;;;;;;;;5039893;28;20281;-62
2023/06/21 02:07:13;;;;;;;4.63;3.50;;;;;;;;;;5043804;28;20202;-62
2023/06/21 02:09:43;;;;;;;4.77;3.07;;;;;;;;;;5039644;28;20206;-62
2023/06/21 02:12:11;;;;;;;6.07;3.50;;;;;;;;;;5048170;28;20206;-62
2023/06/21 02:14:39;;;;;;;4.20;3.63;;;;;;;;;;5039472;28;20207;-62
2023/06/21 02:17:07;;;;;;;5.10;3.30;;;;;;;;;;5040723;28;20211;-62
2023/06/21 02:19:38;;;;;;;5.37;3.40;;;;;;;;;;5039576;28;20232;-62
2023/06/21 02:22:08;;;;;;;3.63;3.33;;;;;;;;;;5040462;28;20265;-62
2023/06/21 02:24:37;;;;;;;4.30;3.40;;;;;;;;;;5039910;28;20205;-62
2023/06/21 02:27:05;;;;;;;5.40;3.60;;;;;;;;;;5041991;28;20268;-63
2023/06/21 02:29:34;;;;;;;5.37;2.93;;;;;;;;;;5041363;28;20569;-63
2023/06/21 02:32:02;;;;;;;9.53;4.10;;;;;;;;;;5042285;28;20277;-62
2023/06/21 02:34:30;;;;;;;5.07;3.30;;;;;;;;;;5040776;28;20200;-62
2023/06/21 02:36:58;;;;;;;6.43;3.53;;;;;;;;;;5042501;28;20246;-62
2023/06/21 02:39:27;;;;;;;6.13;4.13;;;;;;;;;;5042204;28;20230;-63
2023/06/21 02:41:55;;;;;;;5.53;3.73;;;;;;;;;;5039369;28;20198;-68
2023/06/21 02:44:23;;;;;;;4.17;3.77;;;;;;;;;;5042437;28;20210;-66
2023/06/21 02:46:51;;;;;;;4.43;3.23;;;;;;;;;;5038360;28;20220;-67
2023/06/21 02:49:19;;;;;;;6.10;3.67;;;;;;;;;;5035202;28;20701;-67
2023/06/21 02:51:49;;;;;;;3.33;3.03;;;;;;;;;;5017746;28;20218;-66
2023/06/21 02:54:17;;;;;;;4.23;3.27;;;;;;;;;;5017727;28;20221;-66
2023/06/21 02:56:47;;;;;;;4.83;3.20;;;;;;;;;;5017722;28;20269;-66
2023/06/21 02:59:15;;;;;;;5.93;3.77;;;;;;;;;;5032888;28;20250;-66
2023/06/21 03:01:47;;;;;;;4.70;3.60;;;;;;;;;;5036974;28;20202;-66
2023/06/21 03:04:16;;;;;;;6.30;3.13;;;;;;;;;;5037175;28;20212;-66
2023/06/21 03:06:44;;;;;;;5.63;3.83;;;;;;;;;;5037210;28;20210;-66
2023/06/21 03:09:13;;;;;;;4.43;3.53;;;;;;;;;;5037205;28;20667;-67
2023/06/21 03:11:41;;;;;;;4.77;3.47;;;;;;;;;;5039115;28;20217;-66
2023/06/21 03:14:10;;;;;;;4.43;4.03;;;;;;;;;;5041358;28;20266;-66
2023/06/21 03:16:38;;;;;;;5.00;4.00;;;;;;;;;;5040818;28;20620;-66
2023/06/21 03:19:07;;;;;;;7.20;3.43;;;;;;;;;;5041209;28;20256;-66
2023/06/21 03:21:35;;;;;;;5.13;3.50;;;;;;;;;;5040885;28;20635;-66
2023/06/21 03:24:03;;;;;;;7.07;3.90;;;;;;;;;;5041135;28;20214;-66
2023/06/21 03:26:32;;;;;;;6.53;4.10;;;;;;;;;;5040849;28;20237;-66
2023/06/21 03:29:02;;;;;;;8.80;4.07;;;;;;;;;;5040668;28;20926;-66
2023/06/21 03:31:32;;;;;;;5.47;3.67;;;;;;;;;;5040861;28;20294;-66
2023/06/21 03:34:00;;;;;;;7.53;3.60;;;;;;;;;;5040918;28;20209;-66
2023/06/21 03:36:28;;;;;;;6.60;4.13;;;;;;;;;;5040917;28;20241;-66
2023/06/21 03:38:56;;;;;;;6.20;3.77;;;;;;;;;;5040467;28;20725;-66
2023/06/21 03:41:24;;;;;;;5.93;3.97;;;;;;;;;;5040631;28;20231;-67
2023/06/21 03:43:52;;;;;;;6.83;4.00;;;;;;;;;;5040824;28;20211;-67
2023/06/21 03:46:20;;;;;;;6.13;4.10;;;;;;;;;;5040335;28;20245;-66
2023/06/21 03:48:53;;;;;;;6.27;3.90;;;;;;;;;;5042005;28;20315;-66
2023/06/21 03:51:22;;;;;;;4.63;3.97;;;;;;;;;;5040268;28;20237;-66
2023/06/21 03:53:50;;;;;;;7.53;3.80;;;;;;;;;;5040240;28;20641;-67
2023/06/21 03:56:18;;;;;;;6.30;3.60;;;;;;;;;;5040398;28;20209;-66
2023/06/21 03:58:46;;;;;;;6.30;3.57;;;;;;;;;;5032669;28;20232;-66
2023/06/21 04:01:16;;;;;;;5.03;3.23;;;;;;;;;;5037831;28;20252;-66
2023/06/21 04:03:44;;;;;;;5.20;2.60;;;;;;;;;;5033182;28;20238;-67
2023/06/21 04:06:13;;;;;;;5.23;2.23;;;;;;;;;;5039966;28;20204;-66
2023/06/21 04:08:41;;;;;;;9.17;2.23;;;;;;;;;;5040051;28;20250;-66
2023/06/21 04:11:09;;;;;;;2.83;2.10;;;;;;;;;;5040266;28;20214;-66
2023/06/21 04:13:37;;;;;;;4.23;2.17;;;;;;;;;;5040044;28;20220;-66
2023/06/21 04:16:05;;;;;;;3.77;2.47;;;;;;;;;;5040061;28;20215;-66
2023/06/21 04:18:33;;;;;;;5.13;2.40;;;;;;;;;;5036720;28;20256;-66
2023/06/21 04:21:01;;;;;;;3.83;2.00;;;;;;;;;;5039597;28;20224;-66
2023/06/21 04:23:31;;;;;;;4.50;2.30;;;;;;;;;;5038629;28;20203;-66
2023/06/21 04:25:59;;;;;;;4.93;2.37;;;;;;;;;;5039591;28;20657;-66
2023/06/21 04:28:27;;;;;;;4.20;2.17;;;;;;;;;;5039671;28;20234;-66
2023/06/21 04:30:56;;;;;;;2.63;2.10;;;;;;;;;;5039524;28;20261;-66
2023/06/21 04:33:24;;;;;;;4.23;2.00;;;;;;;;;;5039452;28;20572;-66
2023/06/21 04:35:52;;;;;;;3.13;2.03;;;;;;;;;;5039200;28;20200;-66
2023/06/21 04:38:20;;;;;;;5.20;1.97;;;;;;;;;;5039137;28;20226;-65
2023/06/21 04:40:51;;;;;;;5.03;2.10;;;;;;;;;;5039413;28;20281;-66
2023/06/21 04:43:21;;;;;;;7.73;2.40;;;;;;;;;;5039433;28;20222;-66
2023/06/21 04:45:49;;;;;;;11.83;2.00;;;;;;;;;;5038762;28;20211;-65
2023/06/21 04:48:17;;;;;;;4.97;2.40;;;;;;;;;;5049361;28;20235;-66
2023/06/21 04:50:45;;;;;;;4.47;2.43;;;;;;;;;;5039039;28;20240;-66
2023/06/21 04:53:13;;;;;;;5.77;2.40;;;;;;;;;;5039442;28;20266;-65
2023/06/21 04:55:42;;;;;;;4.50;2.30;;;;;;;;;;5039205;28;20217;-66
2023/06/21 04:58:12;;;;;;;4.83;2.20;;;;;;;;;;5036278;28;20628;-66
2023/06/21 05:00:40;;;;;;;4.23;2.27;;;;;;;;;;5038923;28;20728;-66
2023/06/21 05:03:08;;;;;;;3.13;2.50;;;;;;;;;;5038959;28;20269;-66
2023/06/21 05:05:36;;;;;;;4.60;2.10;;;;;;;;;;5039180;28;20213;-66
2023/06/21 05:08:06;;;;;;;4.80;2.40;;;;;;;;;;5039048;28;20234;-66
2023/06/21 05:10:34;;;;;;;7.80;2.93;;;;;;;;;;5039214;28;20213;-65
2023/06/21 05:13:02;;;;;;;4.40;2.70;;;;;;;;;;5038819;28;20628;-66
2023/06/21 05:15:32;;;;;;;4.77;2.47;;;;;;;;;;5038716;28;20613;-66
2023/06/21 05:18:00;;;;;;;3.53;2.33;;;;;;;;;;5038354;28;20695;-66
2023/06/21 05:20:28;;;;;;;4.17;3.10;;;;;;;;;;5038770;28;20210;-66
2023/06/21 05:22:59;;;;;;;3.00;2.70;;;;;;;;;;5038585;28;20214;-66
2023/06/21 05:25:27;;;;;;;4.23;2.70;;;;;;;;;;5038600;28;20209;-66
2023/06/21 05:27:56;;;;;;;4.23;2.90;;;;;;;;;;5038410;28;20227;-66
2023/06/21 05:30:24;;;;;;;4.40;2.70;;;;;;;;;;5038767;28;20218;-66
2023/06/21 05:32:53;;;;;;;5.33;3.47;;;;;;;;;;5038409;28;20200;-66
2023/06/21 05:35:21;;;;;;;6.77;3.20;;;;;;;;;;5038110;28;20262;-66
2023/06/21 05:37:52;;;;;;;4.70;3.40;;;;;;;;;;5038483;28;20226;-66
2023/06/21 05:40:21;;;;;;;4.77;3.20;;;;;;;;;;5038559;28;20208;-66
2023/06/21 05:42:49;;;;;;;4.67;2.97;;;;;;;;;;5038387;28;20227;-66
2023/06/21 05:45:17;;;;;;;8.33;3.50;;;;;;;;;;5038575;28;20238;-66
2023/06/21 05:47:45;;;;;;;5.27;3.37;;;;;;;;;;5039590;28;20308;-66
2023/06/21 05:50:15;;;;;;;5.80;3.63;;;;;;;;;;5038051;28;20271;-66
2023/06/21 05:52:43;;;;;;;4.53;3.33;;;;;;;;;;5038066;28;20732;-65
2023/06/21 05:55:10;;;;;;;6.80;3.30;;;;;;;;;;5037948;28;20207;-67
2023/06/21 05:57:38;;;;;;;4.40;3.57;;;;;;;;;;5035411;28;20227;-66
2023/06/21 06:00:09;;;;;;;5.37;3.47;;;;;;;;;;5032844;28;20231;-66
2023/06/21 06:02:37;;;;;;;4.77;3.30;;;;;;;;;;5035631;28;20270;-66
2023/06/21 06:05:05;;;;;;;4.43;3.57;;;;;;;;;;5029688;28;20296;-65
2023/06/21 06:07:35;;;;;;;6.33;3.30;;;;;;;;;;5037746;28;20257;-66
2023/06/21 06:10:04;;;;;;;13.60;3.53;;;;;;;;;;5037906;28;20216;-66
2023/06/21 06:12:32;;;;;;;4.87;3.30;;;;;;;;;;5038011;28;20215;-66
2023/06/21 06:15:02;;;;;;;5.27;4.20;;;;;;;;;;5037819;28;20255;-66
2023/06/21 06:17:30;;;;;;;3.63;3.33;;;;;;;;;;5037501;28;20259;-66
2023/06/21 06:19:58;;;;;;;6.20;3.40;;;;;;;;;;5037558;28;20572;-66
2023/06/21 06:22:27;;;;;;;5.33;3.87;;;;;;;;;;5037605;28;20283;-66
2023/06/21 06:24:57;;;;;;;8.93;3.67;;;;;;;;;;5037602;28;20220;-66
2023/06/21 06:27:25;;;;;;;6.57;4.00;;;;;;;;;;5037538;28;20208;-66
2023/06/21 06:29:53;;;;;;;5.57;3.70;;;;;;;;;;5037755;28;20220;-66
2023/06/21 06:32:22;;;;;;;4.87;3.30;;;;;;;;;;5033555;28;20305;-66
2023/06/21 06:34:50;;;;;;;4.13;3.50;;;;;;;;;;5030121;28;20653;-66
2023/06/21 06:37:18;;;;;;;8.83;3.33;;;;;;;;;;5036519;28;20815;-68
2023/06/21 06:39:51;;;;;;;14.67;6.70;;;;;;;;;;5036965;28;20205;-66
2023/06/21 06:42:21;;;;;;;6.80;4.60;;;;;;;;;;5036997;28;20275;-65
2023/06/21 06:44:50;;;;;;;8.80;4.87;;;;;;;;;;5036566;28;20209;-65
2023/06/21 06:47:18;;;;;;;8.23;4.63;;;;;;;;;;5044637;28;20256;-65
2023/06/21 06:49:46;;;;;;;9.87;6.47;;;;;;;;;;5044446;28;20732;-66
2023/06/21 06:52:14;;;;;;;12.80;5.47;;;;;;;;;;5041792;28;20301;-66
2023/06/21 06:54:42;;;;;;;11.17;5.27;;;;;;;;;;5041329;28;20242;-67
2023/06/21 06:57:10;;;;;;;15.30;7.80;;;;;;;;;;5030790;28;20261;-65
2023/06/21 06:59:58;;;;;;;7.53;4.77;;;;;;;;;;5040842;28;20213;-65
2023/06/21 07:02:26;;;;;;;6.37;4.60;;;;;;;;;;5030932;28;20226;-65
2023/06/21 07:04:54;;;;;;;9.60;4.90;;;;;;;;;;5041092;28;20242;-66
2023/06/21 07:07:22;;;;;;;9.03;4.43;;;;;;;;;;5041092;28;20243;-65
2023/06/21 07:09:50;;;;;;;8.10;4.80;;;;;;;;;;5040796;28;20213;-65
2023/06/21 07:12:18;;;;;;;16.47;4.80;;;;;;;;;;5040585;28;20200;-65
2023/06/21 07:14:46;;;;;;;8.13;4.20;;;;;;;;;;5040611;28;20564;-65
2023/06/21 07:17:16;;;;;;;13.70;5.37;;;;;;;;;;5040412;28;20238;-64
2023/06/21 07:19:45;;;;;;;6.87;4.67;;;;;;;;;;5040953;28;20205;-65
2023/06/21 07:22:14;;;;;;;11.27;5.27;;;;;;;;;;5040590;28;20240;-65
2023/06/21 07:24:41;;;;;;;9.67;4.70;;;;;;;;;;5040652;28;20263;-65
2023/06/21 07:27:10;;;;;;;10.43;5.27;;;;;;;;;;5040124;28;20587;-65
2023/06/21 07:29:38;;;;;;;8.33;5.30;;;;;;;;;;5040774;28;20238;-65
2023/06/21 07:32:06;;;;;;;8.90;5.27;;;;;;;;;;5040427;28;20266;-65
2023/06/21 07:34:35;;;;;;;11.57;4.90;;;;;;;;;;5040713;28;20210;-66
2023/06/21 07:37:03;;;;;;;9.67;5.23;;;;;;;;;;5040588;28;20215;-66
2023/06/21 07:39:31;;;;;;;6.50;4.67;;;;;;;;;;5040539;28;20228;-66
2023/06/21 07:42:19;;;;;;;8.90;4.67;;;;;;;;;;5040233;28;20231;-66
2023/06/21 07:44:50;;;;;;;11.40;5.10;;;;;;;;;;5039642;28;20262;-66
2023/06/21 07:47:18;;;;;;;8.37;4.90;;;;;;;;;;5045048;28;20233;-65
2023/06/21 07:49:48;;;;;;;9.03;5.23;;;;;;;;;;5041440;28;20752;-65
2023/06/21 07:52:16;;;;;;;9.07;5.17;;;;;;;;;;5036208;28;20654;-66
2023/06/21 07:54:47;;;;;;;10.00;5.47;;;;;;;;;;5040008;28;20646;-65
2023/06/21 07:57:16;;;;;;;14.57;6.50;;;;;;;;;;5039874;28;20210;-66
2023/06/21 07:59:46;;;;;;;9.23;4.73;;;;;;;;;;5028166;28;20199;-66
2023/06/21 08:02:17;;;;;;;16.23;5.50;;;;;;;;;;5039219;28;20230;-66
2023/06/21 08:04:45;;;;;;;11.00;5.23;;;;;;;;;;5038177;28;20209;-67
2023/06/21 08:07:15;;;;;;;11.43;5.10;;;;;;;;;;5033698;28;20733;-67
2023/06/21 08:09:43;;;;;;;9.63;5.33;;;;;;;;;;5036603;28;20209;-67
2023/06/21 08:12:13;;;;;;;10.67;5.70;;;;;;;;;;5031733;28;20212;-67
2023/06/21 08:14:41;;;;;;;8.63;4.97;;;;;;;;;;5034816;28;20210;-67
2023/06/21 08:17:09;;;;;;;8.03;4.93;;;;;;;;;;5021848;28;20211;-67
2023/06/21 08:19:37;;;;;;;8.87;5.10;;;;;;;;;;5036303;28;20223;-66
2023/06/21 08:22:05;;;;;;;13.20;5.43;;;;;;;;;;5038413;28;20215;-66
2023/06/21 08:24:35;;;;;;;9.35;5.20;;;;;;;;;;5031858;28;20207;-67
2023/06/21 08:27:03;;;;;;;11.50;4.78;;;;;;;;;;5039693;28;20207;-66
2023/06/21 08:29:30;;;;;;;12.10;4.97;;;;;;;;;;5039691;28;20710;-67
2023/06/21 08:31:58;;;;;;;8.93;5.20;;;;;;;;;;5039372;28;20577;-67
2023/06/21 08:34:27;;;;;;;11.47;5.53;;;;;;;;;;5039569;28;20210;-67
2023/06/21 08:36:55;;;;;;;7.67;4.70;;;;;;;;;;5026854;28;20215;-67
2023/06/21 08:39:22;;;;;;;10.23;5.60;;;;;;;;;;5039649;28;20228;-67
2023/06/21 08:41:52;;;;;;;12.17;5.30;;;;;;;;;;5039805;28;20211;-67
2023/06/21 08:44:20;;;;;;;10.83;5.10;;;;;;;;;;5039516;28;20267;-67
2023/06/21 08:46:49;;;;;;;6.67;5.00;;;;;;;;;;5039757;28;20275;-67
2023/06/21 08:49:19;;;;;;;11.57;4.90;;;;;;;;;;5044107;28;20262;-68
2023/06/21 08:51:48;;;;;;;16.53;5.20;;;;;;;;;;5059248;28;20625;-66
2023/06/21 08:54:17;;;;;;;9.47;5.03;;;;;;;;;;5059405;28;20203;-67
2023/06/21 08:56:47;;;;;;;12.80;5.47;;;;;;;;;;5059055;28;20659;-67
2023/06/21 08:59:20;;;;;;;11.40;5.37;;;;;;;;;;5059289;28;20220;-66
2023/06/21 09:01:53;;;;;;;13.10;5.63;;;;;;;;;;5056558;28;20199;-67
2023/06/21 09:04:22;;;;;;;10.47;5.20;;;;;;;;;;5058298;28;20313;-67
2023/06/21 09:06:51;;;;;;;10.93;4.80;;;;;;;;;;5058846;28;20207;-66
2023/06/21 09:09:19;;;;;;;11.20;5.20;;;;;;;;;;5058344;28;20244;-67
2023/06/21 09:11:47;;;;;;;13.23;4.87;;;;;;;;;;5046123;28;20260;-67
2023/06/21 09:14:15;;;;;;;12.90;5.63;;;;;;;;;;5058787;28;20237;-67
2023/06/21 09:16:46;;;;;;;13.80;5.43;;;;;;;;;;5058454;28;20241;-67
2023/06/21 09:19:14;;;;;;;18.37;5.77;;;;;;;;;;5058415;28;20261;-66
2023/06/21 09:21:42;;;;;;;14.30;5.20;;;;;;;;;;5058905;28;20222;-67
2023/06/21 09:24:11;;;;;;;11.07;5.27;;;;;;;;;;5058697;28;20314;-67
2023/06/21 09:26:39;;;;;;;16.83;5.50;;;;;;;;;;5058601;28;20211;-67
2023/06/21 09:29:07;;;;;;;11.00;5.63;;;;;;;;;;5058657;28;20227;-67
2023/06/21 09:31:34;;;;;;;11.43;5.67;;;;;;;;;;5058329;28;20260;-66
2023/06/21 09:34:04;;;;;;;12.63;5.35;;;;;;;;;;5058343;28;20274;-67
2023/06/21 09:36:32;;;;;;;12.77;4.55;;;;;;;;;;5058510;28;20220;-67
2023/06/21 09:39:07;;;;;;;8.38;5.05;;;;;;;;;;5058215;28;20228;-66
2023/06/21 09:41:35;;;;;;;8.65;5.78;;;;;;;;;;5058250;28;20614;-66
2023/06/21 09:44:03;;;;;;;10.18;5.65;;;;;;;;;;5058286;28;20287;-66
2023/06/21 09:46:31;;;;;;;13.15;5.72;;;;;;;;;;5058199;28;20266;-68
2023/06/21 09:49:08;;;;;;;13.18;6.20;;;;;;;;;;5070730;28;20729;-67
2023/06/21 09:51:42;;;;;;;15.90;6.30;;;;;;;;;;5046254;28;20238;-67
2023/06/21 09:54:10;;;;;;;16.70;6.57;;;;;;;;;;5054618;28;20201;-66
2023/06/21 09:56:38;;;;;;;14.55;6.07;;;;;;;;;;5056225;28;20207;-66
2023/06/21 09:59:14;;;;;;;9.53;5.77;;;;;;;;;;5057298;28;20233;-66
2023/06/21 10:01:44;;;;;;;10.80;6.63;;;;;;;;;;5052670;28;20196;-66
2023/06/21 10:04:14;;;;;;;12.23;6.70;;;;;;;;;;5053588;28;20230;-65
2023/06/21 10:06:50;;;;;;;15.03;6.77;;;;;;;;;;5051598;28;20207;-66
2023/06/21 10:09:18;;;;;;;13.40;6.93;;;;;;;;;;5051708;28;20251;-64
2023/06/21 10:11:46;;;;;;;17.27;6.77;;;;;;;;;;5054815;28;20581;-64
2023/06/21 10:14:25;;;;;;;14.80;7.57;;;;;;;;;;5057892;28;20301;-64
2023/06/21 10:16:54;;;;;;;15.50;8.27;;;;;;;;;;5057609;28;20307;-64
2023/06/21 10:19:24;;;;;;;17.60;6.97;;;;;;;;;;5057359;28;20225;-63
2023/06/21 10:22:01;;;;;;;12.30;6.50;;;;;;;;;;5055339;28;20206;-64
2023/06/21 10:24:33;;;;;;;10.70;6.33;;;;;;;;;;5050956;28;20224;-65
2023/06/21 10:27:02;;;;;;;12.80;6.73;;;;;;;;;;5053291;28;20206;-65
2023/06/21 10:29:30;;;;;;;12.40;5.87;;;;;;;;;;5037524;28;20226;-63
2023/06/21 10:32:00;;;;;;;18.40;6.57;;;;;;;;;;5037255;28;20218;-66
2023/06/21 10:34:32;;;;;;;18.37;6.93;;;;;;;;;;5037221;28;20235;-66
2023/06/21 10:37:03;;;;;;;12.03;7.07;;;;;;;;;;5051157;28;20205;-65
2023/06/21 10:39:34;;;;;;;14.17;6.50;;;;;;;;;;5057214;28;20234;-66
2023/06/21 10:42:03;;;;;;;14.37;6.10;;;;;;;;;;5057360;28;20714;-62
2023/06/21 10:44:31;;;;;;;18.53;7.03;;;;;;;;;;5046663;28;20224;-61
2023/06/21 10:47:00;;;;;;;14.33;6.67;;;;;;;;;;5058277;28;20214;-62
2023/06/21 10:49:31;;;;;;;16.13;9.73;;;;;;;;;;5056630;28;21074;-62
2023/06/21 10:52:00;;;;;;;10.07;7.00;;;;;;;;;;5057303;28;20209;-61
2023/06/21 10:54:28;;;;;;;12.37;7.00;;;;;;;;;;5056669;28;20210;-62
2023/06/21 10:56:57;;;;;;;17.77;7.57;;;;;;;;;;5054579;28;20284;-62
2023/06/21 10:59:26;;;;;;;15.43;7.03;;;;;;;;;;5054144;28;20307;-62
2023/06/21 11:01:54;;;;;;;13.93;7.37;;;;;;;;;;5056612;28;20567;-61
2023/06/21 11:04:22;;;;;;;14.40;7.40;;;;;;;;;;5056945;28;20228;-61
2023/06/21 11:06:57;;;;;;;13.20;7.80;;;;;;;;;;5056914;28;20307;-63
2023/06/21 11:09:25;;;;;;;12.03;7.63;;;;;;;;;;5056782;28;20362;-63
2023/06/21 11:11:54;;;;;;;14.97;7.40;;;;;;;;;;5056660;28;20231;-63
2023/06/21 11:14:22;;;;;;;11.07;6.93;;;;;;;;;;5056380;28;20206;-63
2023/06/21 11:17:05;;;;;;;12.23;7.00;;;;;;;;;;5056759;28;20217;-65
2023/06/21 11:19:35;;;;;;;10.30;6.43;;;;;;;;;;5056805;28;20240;-64
2023/06/21 11:22:15;;;;;;;11.70;6.70;;;;;;;;;;5057042;28;20214;-64
2023/06/21 11:24:50;;;;;;;12.60;7.60;;;;;;;;;;5056710;28;20274;-63
2023/06/21 11:27:18;;;;;;;19.53;9.87;;;;;;;;;;5056623;28;20206;-63
2023/06/21 11:29:56;;;;;;;15.57;10.60;;;;;;;;;;5056409;28;20619;-63
2023/06/21 11:32:24;;;;;;;19.43;9.57;;;;;;;;;;5057563;28;20623;-63
2023/06/21 11:34:56;;;;;;;14.67;8.37;;;;;;;;;;5060506;28;20668;-63
2023/06/21 11:37:33;;;;;;;13.90;8.47;;;;;;;;;;5060660;28;20209;-62
2023/06/21 11:40:02;;;;;;;15.93;8.20;;;;;;;;;;5060591;28;20213;-63
2023/06/21 11:42:33;;;;;;;16.23;7.60;;;;;;;;;;5060619;28;20205;-62
2023/06/21 11:45:17;;;;;;;16.07;8.13;;;;;;;;;;5060662;28;20223;-63
2023/06/21 11:47:59;;;;;;;14.67;7.53;;;;;;;;;;5064300;28;20228;-63
2023/06/21 11:50:31;;;;;;;16.47;7.67;;;;;;;;;;5050633;28;20240;-63
2023/06/21 11:53:13;;;;;;;13.23;8.77;;;;;;;;;;5040574;28;20207;-63
2023/06/21 11:55:42;;;;;;;14.23;7.13;;;;;;;;;;5040272;28;20287;-63
2023/06/21 11:58:10;;;;;;;14.53;7.03;;;;;;;;;;5033402;28;20232;-63
2023/06/21 12:00:38;;;;;;;12.83;6.47;;;;;;;;;;5037531;28;20850;-63
2023/06/21 12:03:07;;;;;;;16.60;7.63;;;;;;;;;;5040290;28;20208;-63
2023/06/21 12:05:48;;;;;;;10.93;6.73;;;;;;;;;;5031726;28;20261;-63
2023/06/21 12:08:18;;;;;;;12.03;7.30;;;;;;;;;;5036403;28;20218;-64
2023/06/21 12:10:47;;;;;;;13.10;6.80;;;;;;;;;;5037109;28;20209;-64
2023/06/21 12:13:15;;;;;;;12.80;7.50;;;;;;;;;;5029671;28;20662;-63
2023/06/21 12:15:47;;;;;;;10.67;7.13;;;;;;;;;;5031877;28;20199;-63
2023/06/21 12:18:15;;;;;;;11.77;6.70;;;;;;;;;;5035505;28;20226;-63
2023/06/21 12:20:43;;;;;;;14.13;6.50;;;;;;;;;;5031926;28;20204;-63
2023/06/21 12:23:11;;;;;;;12.93;7.60;;;;;;;;;;5029270;28;20214;-63
2023/06/21 12:25:45;;;;;;;10.60;6.90;;;;;;;;;;5039699;28;20226;-63
2023/06/21 12:28:14;;;;;;;14.13;8.27;;;;;;;;;;5039733;28;20229;-63
2023/06/21 12:30:49;;;;;;;9.73;6.50;;;;;;;;;;5039456;28;20575;-63
2023/06/21 12:33:17;;;;;;;14.03;6.90;;;;;;;;;;5028703;28;20210;-64
2023/06/21 12:35:45;;;;;;;10.93;7.50;;;;;;;;;;5039392;28;20230;-64
2023/06/21 12:38:14;;;;;;;16.17;8.20;;;;;;;;;;5038968;28;20228;-63
2023/06/21 12:40:54;;;;;;;14.80;7.33;;;;;;;;;;5039282;28;20206;-63
2023/06/21 12:43:35;;;;;;;17.85;6.90;;;;;;;;;;5034952;28;20204;-64
2023/06/21 12:46:03;;;;;;;15.30;7.22;;;;;;;;;;5034193;28;20290;-64
2023/06/21 12:48:31;;;;;;;12.95;7.03;;;;;;;;;;5044395;28;20689;-63
2023/06/21 12:50:59;;;;;;;10.45;6.88;;;;;;;;;;5032558;28;20642;-63
2023/06/21 12:53:29;;;;;;;10.23;6.82;;;;;;;;;;5035959;28;20215;-63
2023/06/21 12:56:04;;;;;;;12.00;6.35;;;;;;;;;;5038283;28;20627;-63
2023/06/21 12:58:32;;;;;;;11.33;6.07;;;;;;;;;;5037960;28;20269;-63
2023/06/21 13:01:01;;;;;;;12.67;6.00;;;;;;;;;;5038477;28;20203;-63
2023/06/21 13:03:30;;;;;;;12.18;6.53;;;;;;;;;;5038508;28;20211;-63
2023/06/21 13:05:59;;;;;;;8.90;6.43;;;;;;;;;;5037082;28;20234;-64
2023/06/21 13:08:27;;;;;;;13.35;6.68;;;;;;;;;;5037915;28;20232;-63
2023/06/21 13:10:56;;;;;;;12.30;5.70;;;;;;;;;;5038782;28;20210;-64
2023/06/21 13:13:26;;;;;;;10.75;6.47;;;;;;;;;;5038973;28;20222;-63
2023/06/21 13:15:54;;;;;;;10.90;6.33;;;;;;;;;;5038599;28;20210;-63
2023/06/21 13:18:24;;;;;;;13.73;6.03;;;;;;;;;;5039014;28;20318;-63
2023/06/21 13:20:55;;;;;;;9.50;5.97;;;;;;;;;;5038568;28;20213;-63
2023/06/21 13:23:23;;;;;;;11.68;6.30;;;;;;;;;;5038743;28;20240;-63
2023/06/21 13:29:21;;;;;;;8.37;6.33;;;;;;;;;;5029262;28;20240;-63
2023/06/21 13:31:49;;;;;;;16.10;6.77;;;;;;;;;;5038183;28;20286;-62
2023/06/21 13:34:17;;;;;;;14.10;8.50;;;;;;;;;;5040845;28;20606;-62
2023/06/21 13:36:45;;;;;;;19.53;9.63;;;;;;;;;;5030732;28;20199;-63
2023/06/21 13:39:14;;;;;;;12.10;6.40;;;;;;;;;;5030096;28;20762;-62
2023/06/21 13:41:42;;;;;;;13.13;6.43;;;;;;;;;;5038080;28;20201;-62
2023/06/21 13:44:10;;;;;;;13.97;6.50;;;;;;;;;;5038362;28;20211;-62
2023/06/21 13:46:39;;;;;;;12.53;7.03;;;;;;;;;;5037809;28;20715;-62
2023/06/21 13:49:07;;;;;;;12.37;6.60;;;;;;;;;;5038345;28;20229;-63
2023/06/21 13:51:37;;;;;;;13.07;6.67;;;;;;;;;;5037811;28;20399;-63
2023/06/21 13:54:05;;;;;;;10.03;5.50;;;;;;;;;;5031675;28;20205;-63
2023/06/21 13:56:33;;;;;;;13.87;6.10;;;;;;;;;;5037828;28;20273;-62
2023/06/21 13:59:01;;;;;;;12.70;6.97;;;;;;;;;;5031877;28;20302;-63
2023/06/21 14:01:29;;;;;;;11.00;4.70;;;;;;;;;;5028046;28;20594;-63
2023/06/21 14:03:58;;;;;;;8.50;5.77;;;;;;;;;;5035245;28;20215;-63
2023/06/21 14:06:27;;;;;;;14.83;7.40;;;;;;;;;;5037589;28;20223;-62
2023/06/21 14:08:55;;;;;;;11.83;5.70;;;;;;;;;;5036965;28;20729;-62
2023/06/21 14:11:23;;;;;;;12.17;5.60;;;;;;;;;;5027721;28;20203;-62
2023/06/21 14:13:51;;;;;;;14.67;6.10;;;;;;;;;;5036866;28;20211;-62
2023/06/21 14:16:19;;;;;;;12.20;5.70;;;;;;;;;;5037326;28;20207;-62
2023/06/21 14:18:47;;;;;;;13.10;5.30;;;;;;;;;;5037704;28;20234;-62
2023/06/21 14:21:17;;;;;;;13.87;5.20;;;;;;;;;;5037613;28;20292;-63
2023/06/21 14:23:45;;;;;;;9.57;5.17;;;;;;;;;;5037884;28;20208;-62
2023/06/21 14:26:13;;;;;;;12.13;5.60;;;;;;;;;;5037220;28;20691;-62
2023/06/21 14:28:42;;;;;;;10.05;4.85;;;;;;;;;;5034192;28;20231;-63
2023/06/21 14:31:11;;;;;;;9.43;5.23;;;;;;;;;;5034710;28;20291;-63
2023/06/21 14:33:40;;;;;;;8.80;5.30;;;;;;;;;;5041034;28;20204;-62
2023/06/21 14:36:08;;;;;;;16.73;4.97;;;;;;;;;;5033986;28;20208;-62
2023/06/21 14:38:38;;;;;;;12.97;5.40;;;;;;;;;;5037477;28;20223;-62
2023/06/21 14:41:06;;;;;;;10.20;5.22;;;;;;;;;;5037167;28;20210;-62
2023/06/21 14:43:34;;;;;;;11.52;5.50;;;;;;;;;;5046028;28;20212;-63
2023/06/21 14:46:03;;;;;;;10.57;4.97;;;;;;;;;;5036687;28;20226;-63
2023/06/21 14:48:31;;;;;;;17.73;5.90;;;;;;;;;;5037294;28;20223;-63
2023/06/21 14:51:00;;;;;;;9.88;4.35;;;;;;;;;;5037976;28;20245;-63
2023/06/21 14:53:28;;;;;;;8.07;4.77;;;;;;;;;;5037504;28;20295;-62